Time;durP1;ratioP1;P1;durP2;ratioP2;P2;SDS_P1;SDS_P2;PMS_P1;PMS_P2;Temp;Humidity;BMP_temperature;BMP_pressure;BME280_temperature;BME280_humidity;BME280_pressure;Samples;Min_cycle;Max_cycle;Signal;HPM_P1;HPM_P2
2022/11/19 00:01:25;;;;;;;31.50;14.20;;;;;;;-1.91;100.00;97195.59;1714264;83;20144;-83
2022/11/19 00:03:51;;;;;;;69.47;38.02;;;;;;;-1.85;100.00;97199.23;1713898;82;21003;-77
2022/11/19 00:06:24;;;;;;;33.70;19.02;;;;;;;-1.84;100.00;97191.03;1714341;83;21055;-82
2022/11/19 00:08:51;;;;;;;29.42;16.02;;;;;;;-1.84;100.00;97184.39;1714054;82;20963;-81
2022/11/19 00:14:14;;;;;;;34.43;16.05;;;;;;;-1.82;100.00;97188.15;1714124;83;20980;-77
2022/11/19 00:16:46;;;;;;;56.50;33.00;;;;;;;-1.81;100.00;97197.73;1714614;83;20964;-82
2022/11/19 00:19:11;;;;;;;51.08;27.65;;;;;;;-1.92;98.82;97203.27;1713581;83;20956;-78
2022/11/19 00:21:38;;;;;;;74.32;48.75;;;;;;;-1.86;100.00;97210.37;1714399;83;20991;-82
2022/11/19 00:24:06;;;;;;;52.55;31.60;;;;;;;-1.86;100.00;97221.51;1714146;83;21003;-82
2022/11/19 00:26:33;;;;;;;44.27;21.95;;;;;;;-1.85;100.00;97224.45;1714325;83;20960;-82
2022/11/19 00:29:00;;;;;;;37.50;18.98;;;;;;;-1.82;100.00;97221.35;1714264;83;21424;-77
2022/11/19 00:31:26;;;;;;;40.52;20.00;;;;;;;-1.80;100.00;97214.77;1717956;83;21005;-81
2022/11/19 00:33:53;;;;;;;40.67;18.73;;;;;;;-1.76;100.00;97213.84;1719334;83;21003;-78
2022/11/19 00:36:21;;;;;;;30.57;14.85;;;;;;;-1.76;100.00;97213.84;1719501;83;20968;-78
2022/11/19 00:38:48;;;;;;;35.28;17.57;;;;;;;-1.71;100.00;97215.30;1719312;83;21044;-77
2022/11/19 00:41:15;;;;;;;33.08;18.55;;;;;;;-1.66;100.00;97223.42;1718841;83;21432;-81
2022/11/19 00:43:52;;;;;;;26.68;13.18;;;;;;;-1.78;99.68;97220.70;1714239;83;21055;-82
2022/11/19 00:46:20;;;;;;;33.05;14.07;;;;;;;-1.78;100.00;97215.39;1713193;82;21019;-78
2022/11/19 00:48:48;;;;;;;30.95;14.45;;;;;;;-1.73;100.00;97217.38;1712843;83;20956;-82
2022/11/19 00:51:16;;;;;;;24.92;11.38;;;;;;;-1.82;100.00;97226.66;1714586;82;21059;-81
2022/11/19 00:53:43;;;;;;;30.90;13.83;;;;;;;-1.86;100.00;97227.63;1714463;83;21022;-78
2022/11/19 00:56:13;;;;;;;30.08;14.35;;;;;;;-1.83;100.00;97229.03;1714305;83;20956;-82
2022/11/19 00:58:40;;;;;;;28.05;14.25;;;;;;;-1.83;100.00;97224.52;1714155;83;21025;-82
2022/11/19 01:01:07;;;;;;;26.85;12.70;;;;;;;-1.80;100.00;97221.41;1714307;83;21002;-77
2022/11/19 01:03:34;;;;;;;25.80;12.00;;;;;;;-1.76;100.00;97231.91;1714025;83;21002;-81
2022/11/19 01:06:01;;;;;;;34.30;20.37;;;;;;;-1.72;100.00;97235.73;1714372;83;20959;-82
2022/11/19 01:08:28;;;;;;;49.53;31.07;;;;;;;-1.70;100.00;97231.56;1714143;83;21007;-77
2022/11/19 01:10:55;;;;;;;32.17;21.82;;;;;;;-1.72;100.00;97228.29;1714400;82;21637;-82
2022/11/19 01:13:34;;;;;;;45.28;27.45;;;;;;;-1.72;100.00;97243.70;1714035;83;21451;-78
2022/11/19 01:16:08;;;;;;;36.83;24.72;;;;;;;-1.80;100.00;97241.86;1714606;83;21463;-81
2022/11/19 01:18:36;;;;;;;33.78;15.85;;;;;;;-1.82;100.00;97214.71;1703549;83;21562;-77
2022/11/19 01:21:03;;;;;;;33.38;17.77;;;;;;;-1.86;100.00;97215.67;1714443;83;20983;-78
2022/11/19 01:23:30;;;;;;;34.00;18.98;;;;;;;-1.85;100.00;97225.78;1714054;82;21701;-77
2022/11/19 01:25:57;;;;;;;32.48;16.82;;;;;;;-1.88;100.00;97237.67;1714262;83;21004;-77
2022/11/19 01:28:24;;;;;;;42.73;27.70;;;;;;;-1.89;100.00;97247.97;1713942;83;20983;-77
2022/11/19 01:30:51;;;;;;;29.30;17.45;;;;;;;-1.92;100.00;97237.80;1716632;82;21024;-82
2022/11/19 01:33:18;;;;;;;29.52;17.57;;;;;;;-2.03;100.00;97225.25;1719233;83;21011;-82
2022/11/19 01:35:58;;;;;;;32.10;19.07;;;;;;;-2.08;100.00;97225.89;1719496;83;21504;-77
2022/11/19 01:38:26;;;;;;;25.65;14.45;;;;;;;-2.10;100.00;97233.78;1718750;83;21440;-82
2022/11/19 01:40:53;;;;;;;34.53;22.43;;;;;;;-2.08;100.00;97240.48;1719589;83;21412;-82
2022/11/19 01:43:24;;;;;;;40.50;24.70;;;;;;;-2.25;100.00;97254.02;1714222;83;21011;-82
2022/11/19 01:45:53;;;;;;;29.05;16.17;;;;;;;-2.21;100.00;97258.39;1707341;83;20951;-82
2022/11/19 01:48:28;;;;;;;;;;;;;;;-2.17;100.00;97264.87;1716741;82;21019;-77
2022/11/19 01:51:12;;;;;;;32.13;16.00;;;;;;;-2.15;100.00;97253.52;1714358;83;20158;-77
2022/11/19 01:53:39;;;;;;;46.73;24.43;;;;;;;-2.17;100.00;97263.55;1714133;83;21007;-79
2022/11/19 01:56:07;;;;;;;33.40;20.35;;;;;;;-2.17;100.00;97264.87;1714215;83;20963;-77
2022/11/19 01:58:39;;;;;;;39.25;25.23;;;;;;;-2.15;100.00;97268.93;1703883;83;20987;-82
2022/11/19 02:01:07;;;;;;;41.02;23.67;;;;;;;-2.14;100.00;97271.87;1714318;83;21054;-82
2022/11/19 02:03:34;;;;;;;27.73;14.98;;;;;;;-2.14;100.00;97271.87;1713855;83;20964;-78
2022/11/19 02:06:00;;;;;;;32.30;14.85;;;;;;;-2.10;100.00;97263.80;1714330;83;21034;-77
2022/11/19 02:08:40;;;;;;;33.58;16.93;;;;;;;-2.08;100.00;97272.34;1714031;83;21003;-77
2022/11/19 02:11:36;;;;;;;42.95;25.97;;;;;;;-2.03;100.00;97285.80;1714237;83;21015;-77
2022/11/19 02:14:43;;;;;;;38.58;20.60;;;;;;;-1.97;100.00;97279.30;1708320;83;21014;-82
2022/11/19 02:17:18;;;;;;;31.15;15.50;;;;;;;-1.91;100.00;97279.25;1714274;83;21015;-77
2022/11/19 02:20:06;;;;;;;26.60;14.47;;;;;;;-1.89;100.00;97281.16;1713944;82;21097;-82
2022/11/19 02:22:51;;;;;;;24.33;12.43;;;;;;;-1.84;100.00;97282.66;1714273;82;20965;-82
2022/11/19 02:25:29;;;;;;;31.42;14.15;;;;;;;-1.79;100.00;97294.78;1714369;82;21455;-82
2022/11/19 02:28:38;;;;;;;34.23;19.40;;;;;;;-1.75;100.00;97301.27;1714379;82;21039;-82
2022/11/19 02:31:16;;;;;;;31.40;14.20;;;;;;;-1.72;100.00;97297.36;1713577;82;21014;-81
2022/11/19 02:34:15;;;;;;;26.42;12.13;;;;;;;-1.69;100.00;97312.88;1712798;82;21485;-77
2022/11/19 02:36:49;;;;;;;26.20;13.43;;;;;;;-1.66;100.00;97303.13;1712795;83;21080;-77
2022/11/19 02:39:29;;;;;;;25.65;13.53;;;;;;;-1.63;100.00;97304.53;1712087;82;20986;-81
2022/11/19 02:42:01;;;;;;;30.68;16.45;;;;;;;-1.60;100.00;97304.11;1722813;82;21710;-77
2022/11/19 02:45:03;;;;;;;26.75;14.40;;;;;;;-1.58;100.00;97296.20;1738669;81;21044;-78
2022/11/19 02:47:55;;;;;;;26.48;13.68;;;;;;;-1.55;100.00;97290.44;1739175;81;20977;-77
2022/11/19 02:50:27;;;;;;;22.85;12.35;;;;;;;-1.56;100.00;97299.96;1739171;82;21072;-82
2022/11/19 02:52:53;;;;;;;27.15;12.90;;;;;;;-1.56;100.00;97306.09;1739185;81;21036;-77
2022/11/19 02:55:21;;;;;;;30.08;14.28;;;;;;;-1.61;100.00;97313.92;1739101;82;20970;-77
2022/11/19 03:04:28;;;;;;;29.95;14.80;;;;;;;-1.63;100.00;97321.80;1738978;81;21016;-82
2022/11/19 03:06:22;;;;;;;26.50;13.00;;;;;;;-1.69;100.00;97335.97;1739312;82;21032;-82
2022/11/19 03:08:49;;;;;;;25.17;13.18;;;;;;;-1.68;100.00;97342.39;1738730;81;21785;-82
2022/11/19 03:11:25;;;;;;;35.65;17.55;;;;;;;-1.66;100.00;97343.50;1739029;82;20981;-77
2022/11/19 03:16:59;;;;;;;32.60;17.70;;;;;;;-1.68;100.00;97327.78;1739298;82;21059;-78
2022/11/19 03:19:56;;;;;;;36.23;18.30;;;;;;;-1.66;100.00;97324.90;1738972;81;21056;-77
2022/11/19 03:22:47;;;;;;;35.43;19.73;;;;;;;-1.62;100.00;97326.07;1739152;81;20957;-77
2022/11/19 03:25:37;;;;;;;48.90;26.93;;;;;;;-1.62;100.00;97323.41;1715311;83;21393;-82
2022/11/19 03:28:09;;;;;;;34.80;18.05;;;;;;;-1.72;100.00;97321.27;1735873;81;21028;-77
2022/11/19 03:30:36;;;;;;;34.35;16.80;;;;;;;-1.67;100.00;97331.25;1730473;82;21010;-79
2022/11/19 03:33:09;;;;;;;32.55;16.20;;;;;;;-1.64;100.00;97329.47;1712739;82;21521;-81
2022/11/19 03:35:41;;;;;;;29.48;16.35;;;;;;;-1.61;100.00;97335.70;1712870;83;21033;-78
2022/11/19 03:38:12;;;;;;;51.18;27.37;;;;;;;-1.58;100.00;97337.91;1692029;83;21061;-82
2022/11/19 03:40:39;;;;;;;63.20;32.08;;;;;;;-1.58;100.00;97337.39;1712640;83;21470;-77
2022/11/19 03:43:06;;;;;;;33.75;20.17;;;;;;;-1.59;100.00;97336.28;1713788;83;21054;-82
2022/11/19 03:45:38;;;;;;;32.28;18.25;;;;;;;-1.63;100.00;97331.91;1714418;82;21002;-82
2022/11/19 03:48:05;;;;;;;28.83;17.40;;;;;;;-1.65;100.00;97331.31;1714208;83;21846;-77
2022/11/19 03:50:51;;;;;;;43.30;25.45;;;;;;;-1.73;100.00;97338.23;1714340;83;21034;-82
2022/11/19 03:53:18;;;;;;;34.35;22.35;;;;;;;-1.70;100.00;97343.13;1714072;83;21053;-78
2022/11/19 03:56:01;;;;;;;35.43;20.70;;;;;;;-1.74;100.00;97344.58;1714341;83;20967;-80
2022/11/19 03:58:28;;;;;;;25.90;14.50;;;;;;;-1.75;100.00;97347.75;1714122;83;21039;-82
2022/11/19 04:00:55;;;;;;;32.70;19.62;;;;;;;-1.73;100.00;97370.92;1704041;83;21105;-77
2022/11/19 04:03:22;;;;;;;56.08;19.60;;;;;;;-1.80;100.00;97363.52;1714034;83;21248;-82
2022/11/19 04:05:49;;;;;;;30.92;20.08;;;;;;;-1.85;100.00;97366.03;1714367;83;21474;-77
2022/11/19 04:08:16;;;;;;;33.53;18.30;;;;;;;-1.83;100.00;97374.59;1713975;83;21443;-82
2022/11/19 04:10:43;;;;;;;38.60;19.37;;;;;;;-1.87;100.00;97373.41;1714395;83;21059;-77
2022/11/19 04:13:09;;;;;;;28.05;14.98;;;;;;;-1.86;100.00;97368.91;1714220;83;21022;-82
2022/11/19 04:15:36;;;;;;;40.35;25.40;;;;;;;-1.83;100.00;97365.81;1714080;83;20979;-82
2022/11/19 04:18:03;;;;;;;31.33;18.77;;;;;;;-1.86;100.00;97368.39;1714239;83;21023;-77
2022/11/19 04:20:30;;;;;;;20.02;11.80;;;;;;;-1.89;100.00;97363.48;1713919;83;21007;-77
2022/11/19 04:22:57;;;;;;;21.97;12.70;;;;;;;-2.02;99.67;97366.27;1714088;83;20976;-77
2022/11/19 04:25:24;;;;;;;24.07;14.63;;;;;;;-2.04;99.57;97364.34;1714008;83;20999;-82
2022/11/19 04:27:51;;;;;;;25.70;15.45;;;;;;;-2.07;99.06;97371.39;1714119;83;20951;-82
2022/11/19 04:30:18;;;;;;;37.78;20.80;;;;;;;-2.09;99.73;97381.42;1715032;83;21110;-81
2022/11/19 04:32:45;;;;;;;33.38;21.15;;;;;;;-2.03;100.00;97377.91;1719337;83;20976;-77
2022/11/19 04:35:12;;;;;;;25.23;14.07;;;;;;;-2.00;100.00;97391.56;1719223;83;20960;-78
2022/11/19 04:37:39;;;;;;;31.15;15.15;;;;;;;-1.99;100.00;97399.02;1719194;83;21779;-77
2022/11/19 04:40:08;;;;;;;34.85;21.10;;;;;;;-2.04;100.00;97395.69;1719074;83;21480;-81
2022/11/19 04:42:34;;;;;;;34.50;20.70;;;;;;;-2.13;99.84;97392.99;1715841;83;21030;-77
2022/11/19 04:45:01;;;;;;;28.20;18.67;;;;;;;-2.24;99.48;97403.45;1714090;83;21421;-83
2022/11/19 04:47:28;;;;;;;41.02;21.02;;;;;;;-2.18;100.00;97407.92;1714175;83;21504;-81
2022/11/19 04:49:55;;;;;;;20.88;12.00;;;;;;;-2.18;99.91;97413.23;1714136;83;20999;-82
2022/11/19 04:52:22;;;;;;;26.35;16.37;;;;;;;-2.24;98.65;97418.06;1714132;83;20987;-77
2022/11/19 04:54:49;;;;;;;25.20;14.47;;;;;;;-2.20;99.32;97417.44;1714043;83;21337;-79
2022/11/19 04:57:16;;;;;;;20.10;11.30;;;;;;;-2.23;98.88;97409.06;1714192;83;20971;-77
2022/11/19 04:59:43;;;;;;;29.27;19.55;;;;;;;-2.20;99.25;97408.66;1714136;83;20987;-81
2022/11/19 05:02:09;;;;;;;29.55;16.07;;;;;;;-2.18;99.18;97418.55;1714082;83;21023;-82
2022/11/19 05:04:36;;;;;;;39.73;23.60;;;;;;;-2.16;99.92;97431.08;1713967;83;20964;-81
2022/11/19 05:07:03;;;;;;;30.12;18.00;;;;;;;-2.20;100.00;97428.05;1714285;83;21026;-82
2022/11/19 05:09:32;;;;;;;28.67;17.40;;;;;;;-2.14;100.00;97436.47;1713873;83;20987;-77
2022/11/19 05:11:59;;;;;;;36.20;18.92;;;;;;;-2.12;100.00;97438.42;1714302;83;21243;-82
2022/11/19 05:14:26;;;;;;;80.80;48.38;;;;;;;-2.10;100.00;97444.33;1713929;83;22071;-82
2022/11/19 05:16:53;;;;;;;32.95;20.12;;;;;;;-2.12;100.00;97458.33;1714194;83;20975;-82
2022/11/19 05:19:19;;;;;;;66.85;48.17;;;;;;;-2.15;100.00;97460.06;1713938;83;21007;-77
2022/11/19 05:21:46;;;;;;;66.65;41.73;;;;;;;-2.16;100.00;97454.97;1714212;83;20979;-81
2022/11/19 05:24:13;;;;;;;40.28;25.02;;;;;;;-2.14;100.00;97459.55;1713894;83;20953;-81
2022/11/19 05:26:40;;;;;;;32.67;19.40;;;;;;;-2.11;100.00;97465.27;1714344;83;20983;-77
2022/11/19 05:29:07;;;;;;;32.45;19.57;;;;;;;-2.08;100.00;97468.00;1713936;83;20999;-78
2022/11/19 05:31:34;;;;;;;31.55;20.75;;;;;;;-2.10;100.00;97462.09;1717993;83;21400;-77
2022/11/19 05:34:01;;;;;;;35.65;20.23;;;;;;;-2.09;100.00;97467.19;1719227;83;20972;-77
2022/11/19 05:36:28;;;;;;;29.35;17.55;;;;;;;-2.07;100.00;97476.27;1719495;83;21051;-81
2022/11/19 05:38:54;;;;;;;46.37;27.87;;;;;;;-2.07;100.00;97477.08;1719112;83;21040;-77
2022/11/19 05:41:21;;;;;;;37.55;22.02;;;;;;;-2.15;100.00;97485.80;1718509;83;20968;-82
2022/11/19 05:43:48;;;;;;;31.12;17.12;;;;;;;-2.16;100.00;97495.61;1713895;83;20968;-81
2022/11/19 05:46:15;;;;;;;37.28;21.95;;;;;;;-2.11;100.00;97493.14;1714148;82;21038;-78
2022/11/19 05:48:42;;;;;;;45.23;31.35;;;;;;;-2.05;100.00;97498.10;1714062;83;21059;-77
2022/11/19 05:51:14;;;;;;;40.65;25.85;;;;;;;-2.01;100.00;97492.69;1714249;83;21634;-82
2022/11/19 05:53:42;;;;;;;33.98;19.37;;;;;;;-2.04;100.00;97496.59;1713894;83;21463;-77
2022/11/19 05:56:09;;;;;;;37.15;23.83;;;;;;;-2.10;100.00;97501.41;1714216;83;21396;-82
2022/11/19 05:58:35;;;;;;;35.68;21.87;;;;;;;-2.10;100.00;97503.25;1714030;83;21061;-77
2022/11/19 06:01:02;;;;;;;32.78;18.07;;;;;;;-2.13;100.00;97513.79;1713896;83;21023;-77
2022/11/19 06:03:30;;;;;;;47.27;28.38;;;;;;;-2.13;100.00;97520.94;1713949;82;20999;-82
2022/11/19 06:05:57;;;;;;;29.63;15.43;;;;;;;-2.12;100.00;97514.59;1714013;83;20999;-78
2022/11/19 06:08:24;;;;;;;100.42;55.73;;;;;;;-2.12;100.00;97517.25;1713794;83;21431;-77
2022/11/19 06:10:51;;;;;;;48.48;30.60;;;;;;;-2.14;100.00;97521.94;1713549;83;20992;-81
2022/11/19 06:13:18;;;;;;;50.92;30.88;;;;;;;-2.14;100.00;97526.73;1713417;83;20979;-77
2022/11/19 06:15:44;;;;;;;54.35;33.33;;;;;;;-2.22;100.00;97529.66;1712175;83;21045;-82
2022/11/19 06:18:11;;;;;;;64.47;41.05;;;;;;;-2.21;100.00;97536.59;1712375;82;21372;-82
2022/11/19 06:20:38;;;;;;;54.55;33.50;;;;;;;-2.28;100.00;97543.23;1712387;83;21026;-82
2022/11/19 06:23:05;;;;;;;28.55;19.25;;;;;;;-2.27;100.00;97550.69;1712434;82;21069;-82
2022/11/19 06:25:32;;;;;;;35.45;20.60;;;;;;;-2.28;100.00;97555.70;1712261;83;21177;-81
2022/11/19 06:27:59;;;;;;;39.90;19.98;;;;;;;-2.28;100.00;97554.37;1712467;82;21003;-82
2022/11/19 06:30:26;;;;;;;48.08;31.35;;;;;;;-2.25;100.00;97556.59;1712669;83;21609;-77
2022/11/19 06:32:53;;;;;;;34.60;16.30;;;;;;;-2.21;100.00;97559.66;1714187;82;20992;-82
2022/11/19 06:35:19;;;;;;;26.12;15.35;;;;;;;-2.20;100.00;97566.60;1713981;83;21003;-82
2022/11/19 06:37:46;;;;;;;27.37;14.70;;;;;;;-2.24;99.93;97570.69;1714089;82;21009;-77
2022/11/19 06:40:13;;;;;;;37.90;18.10;;;;;;;-2.23;100.00;97576.29;1714051;83;21387;-82
2022/11/19 06:42:40;;;;;;;26.80;15.72;;;;;;;-2.16;100.00;97569.13;1713935;82;20976;-77
2022/11/19 06:45:12;;;;;;;33.83;18.12;;;;;;;-2.15;100.00;97578.20;1713956;83;21310;-82
2022/11/19 06:47:40;;;;;;;47.88;30.05;;;;;;;-2.11;100.00;97582.09;1714159;83;20983;-82
2022/11/19 06:50:08;;;;;;;29.50;18.25;;;;;;;-2.05;100.00;97583.91;1714204;83;21033;-77
2022/11/19 06:52:35;;;;;;;27.90;15.03;;;;;;;-2.02;100.00;97583.48;1714442;82;21001;-81
2022/11/19 06:55:01;;;;;;;56.15;23.85;;;;;;;-1.98;100.00;97587.84;1714195;83;20952;-82
2022/11/19 06:57:28;;;;;;;32.20;18.05;;;;;;;-1.94;100.00;97586.41;1714189;83;21058;-82
2022/11/19 06:59:55;;;;;;;32.80;18.52;;;;;;;-1.93;100.00;97598.67;1714173;83;20995;-82
2022/11/19 07:02:22;;;;;;;28.98;16.05;;;;;;;-1.87;100.00;97607.64;1714251;83;21436;-81
2022/11/19 07:04:49;;;;;;;32.10;15.45;;;;;;;-1.79;100.00;97604.75;1714207;83;21018;-82
2022/11/19 07:07:16;;;;;;;35.58;20.00;;;;;;;-1.77;99.67;97608.00;1714067;83;21420;-78
2022/11/19 07:09:43;;;;;;;37.63;19.25;;;;;;;-1.78;99.38;97615.16;1714106;83;20994;-77
2022/11/19 07:12:10;;;;;;;31.20;16.57;;;;;;;-1.81;98.24;97618.73;1714378;83;21062;-77
2022/11/19 07:14:37;;;;;;;32.38;17.50;;;;;;;-1.73;99.87;97618.50;1713879;83;21039;-81
2022/11/19 07:17:04;;;;;;;54.77;30.12;;;;;;;-1.71;99.50;97611.97;1714446;83;21015;-81
2022/11/19 07:19:31;;;;;;;55.12;33.02;;;;;;;-1.77;98.32;97614.65;1714130;83;20967;-82
2022/11/19 07:21:58;;;;;;;47.00;25.97;;;;;;;-1.81;97.85;97614.23;1714176;83;21034;-80
2022/11/19 07:24:25;;;;;;;54.27;32.15;;;;;;;-1.81;98.40;97624.86;1713962;83;21099;-77
2022/11/19 07:26:52;;;;;;;54.15;33.63;;;;;;;-1.82;98.66;97620.58;1714384;82;21094;-82
2022/11/19 07:29:19;;;;;;;53.40;27.80;;;;;;;-1.89;97.97;97614.98;1713857;82;21140;-81
2022/11/19 07:31:49;;;;;;;80.92;51.90;;;;;;;-1.86;98.75;97618.05;1718436;83;21023;-77
2022/11/19 07:34:15;;;;;;;66.90;38.15;;;;;;;-1.85;98.32;97622.34;1719126;83;21012;-77
2022/11/19 07:36:42;;;;;;;48.63;27.67;;;;;;;-2.01;98.48;97631.58;1719418;83;20945;-77
2022/11/19 07:39:09;;;;;;;62.85;32.10;;;;;;;-2.11;98.76;97633.05;1719142;83;20960;-82
2022/11/19 07:44:21;;;;;;;67.00;36.95;;;;;;;-1.95;99.48;97633.11;1703046;83;20972;-77
2022/11/19 07:46:48;;;;;;;71.37;37.67;;;;;;;-1.82;99.78;97637.03;1690443;83;20981;-82
2022/11/19 07:49:15;;;;;;;65.92;37.42;;;;;;;-1.74;99.48;97636.80;1712509;82;20955;-77
2022/11/19 07:51:42;;;;;;;71.00;40.75;;;;;;;-1.62;99.54;97634.28;1712791;82;20973;-82
2022/11/19 07:54:13;;;;;;;60.33;42.20;;;;;;;-1.55;99.42;97633.23;1712513;82;21826;-82
2022/11/19 07:56:39;;;;;;;86.32;54.60;;;;;;;-1.62;98.12;97635.12;1712544;83;21097;-77
2022/11/19 07:59:06;;;;;;;57.75;35.43;;;;;;;-1.74;97.33;97626.98;1720307;82;21004;-81
2022/11/19 08:01:33;;;;;;;76.00;34.65;;;;;;;-1.68;98.19;97634.63;1690840;82;21000;-77
2022/11/19 08:04:01;;;;;;;51.40;24.07;;;;;;;-1.80;97.85;97630.98;1712475;82;21008;-82
2022/11/19 08:06:28;;;;;;;45.52;24.00;;;;;;;-1.69;98.84;97636.17;1717191;83;21032;-82
2022/11/19 08:08:55;;;;;;;44.33;22.27;;;;;;;-1.70;98.63;97638.02;1728869;82;20976;-77
2022/11/19 08:11:22;;;;;;;47.95;20.52;;;;;;;-1.61;99.43;97639.92;1728811;83;21046;-77
2022/11/19 08:13:50;;;;;;;37.58;18.05;;;;;;;-1.53;99.48;97645.81;1724838;83;20980;-82
2022/11/19 08:19:12;;;;;;;43.63;19.48;;;;;;;-1.36;99.73;97647.47;1719219;83;21000;-82
2022/11/19 08:21:40;;;;;;;36.48;17.77;;;;;;;-1.31;98.71;97646.81;1691316;83;21011;-82
2022/11/19 08:24:08;;;;;;;38.13;17.87;;;;;;;-1.29;97.24;97644.23;1719008;83;21039;-77
2022/11/19 08:26:36;;;;;;;37.98;20.02;;;;;;;-1.23;96.79;97651.37;1719126;83;21075;-77
2022/11/19 08:29:03;;;;;;;46.10;25.82;;;;;;;-1.16;97.05;97648.68;1719039;83;21012;-77
2022/11/19 08:31:30;;;;;;;40.00;22.87;;;;;;;-1.12;96.01;97649.05;1693122;83;21004;-77
2022/11/19 08:33:57;;;;;;;36.55;20.08;;;;;;;-1.07;96.84;97646.58;1712527;82;20998;-77
2022/11/19 08:36:24;;;;;;;33.98;18.62;;;;;;;-1.09;96.24;97649.97;1683529;84;21069;-77
2022/11/19 08:38:51;;;;;;;39.90;19.55;;;;;;;-1.20;96.22;97654.95;1697147;83;21422;-82
2022/11/19 08:44:03;;;;;;;31.95;18.85;;;;;;;-1.27;96.57;97650.70;1685313;83;21008;-78
2022/11/19 08:46:30;;;;;;;27.35;18.73;;;;;;;-1.34;96.62;97656.04;1685290;85;21052;-81
2022/11/19 08:48:57;;;;;;;30.75;18.92;;;;;;;-1.44;95.82;97660.48;1691388;83;21469;-82
2022/11/19 08:51:24;;;;;;;40.10;19.65;;;;;;;-1.44;97.06;97657.83;1687853;83;20967;-77
2022/11/19 08:53:52;;;;;;;30.72;18.45;;;;;;;-1.42;97.16;97662.93;1712475;83;21009;-77
2022/11/19 08:56:19;;;;;;;36.20;18.55;;;;;;;-1.54;93.04;97662.79;1699411;83;21040;-82
2022/11/19 08:58:46;;;;;;;33.78;17.20;;;;;;;-1.50;94.03;97664.50;1704305;82;21075;-82
2022/11/19 09:01:14;;;;;;;36.53;18.65;;;;;;;-1.43;95.38;97675.92;1710584;82;21021;-77
2022/11/19 09:03:42;;;;;;;29.50;16.00;;;;;;;-1.41;95.83;97677.84;1679670;85;20969;-77
2022/11/19 09:06:09;;;;;;;35.63;19.45;;;;;;;-1.49;93.77;97674.09;1688928;83;21402;-77
2022/11/19 09:08:36;;;;;;;25.20;14.53;;;;;;;-1.44;95.17;97677.77;1679477;84;21044;-77
2022/11/19 09:11:12;;;;;;;30.23;16.27;;;;;;;-1.48;93.77;97680.52;1679410;85;20969;-77
2022/11/19 09:13:39;;;;;;;27.85;14.00;;;;;;;-1.52;94.88;97685.98;1679156;85;20962;-77
2022/11/19 09:16:07;;;;;;;30.90;17.55;;;;;;;-1.52;96.01;97681.98;1679517;85;20999;-77
2022/11/19 09:18:37;;;;;;;43.78;17.15;;;;;;;-1.48;95.70;97685.03;1679651;85;20973;-77
2022/11/19 09:21:03;;;;;;;44.27;22.30;;;;;;;-1.53;96.04;97685.67;1679322;85;21071;-81
2022/11/19 09:23:29;;;;;;;43.05;18.42;;;;;;;-1.54;95.60;97684.05;1684211;83;21019;-77
2022/11/19 09:26:00;;;;;;;81.97;33.18;;;;;;;-1.54;96.18;97684.53;1679545;85;21052;-82
2022/11/19 09:28:27;;;;;;;45.83;22.65;;;;;;;-1.53;96.05;97692.32;1679248;85;20992;-82
2022/11/19 09:31:06;;;;;;;36.80;19.40;;;;;;;-1.52;95.64;97694.46;1695260;83;20974;-77
2022/11/19 09:33:34;;;;;;;35.95;19.37;;;;;;;-1.55;95.18;97702.32;1713849;82;20983;-81
2022/11/19 09:36:01;;;;;;;39.03;19.37;;;;;;;-1.56;95.35;97695.89;1714089;83;20950;-77
2022/11/19 09:38:30;;;;;;;29.85;16.70;;;;;;;-1.55;95.12;97703.65;1713906;83;21056;-77
2022/11/19 09:40:57;;;;;;;23.83;12.50;;;;;;;-1.55;95.25;97704.16;1714233;82;21037;-77
2022/11/19 09:43:36;;;;;;;26.05;12.47;;;;;;;-1.55;94.87;97699.66;1699158;83;20943;-78
2022/11/19 09:46:09;;;;;;;26.33;13.78;;;;;;;-1.62;94.43;97697.56;1699049;83;21696;-82
2022/11/19 09:48:37;;;;;;;37.00;17.20;;;;;;;-1.74;94.47;97698.71;1709028;82;21475;-77
2022/11/19 09:51:17;;;;;;;31.50;17.02;;;;;;;-1.76;94.60;97700.77;1709554;84;21429;-77
2022/11/19 09:53:50;;;;;;;33.02;17.40;;;;;;;-1.71;94.55;97700.13;1709505;82;20984;-81
2022/11/19 09:56:28;;;;;;;42.27;20.80;;;;;;;-1.67;94.21;97703.20;1709138;84;21075;-82
2022/11/19 09:58:56;;;;;;;51.73;25.62;;;;;;;-1.63;94.16;97705.72;1709309;82;21018;-77
2022/11/19 10:01:24;;;;;;;42.83;23.85;;;;;;;-1.63;93.88;97706.53;1709265;84;21504;-77
2022/11/19 10:03:52;;;;;;;40.25;19.82;;;;;;;-1.60;94.68;97706.66;1709312;82;21393;-78
2022/11/19 10:06:30;;;;;;;41.93;17.57;;;;;;;-1.55;94.13;97708.15;1710579;83;20998;-82
2022/11/19 10:09:23;;;;;;;33.55;15.83;;;;;;;-1.51;95.06;97702.22;1712491;82;20986;-81
2022/11/19 10:12:07;;;;;;;23.50;11.90;;;;;;;-1.45;94.23;97707.22;1712229;83;21041;-82
2022/11/19 10:15:04;;;;;;;26.33;13.68;;;;;;;-1.49;93.56;97698.83;1685756;83;20965;-77
2022/11/19 10:18:04;;;;;;;27.10;12.73;;;;;;;-1.50;94.01;97700.38;1713064;83;21414;-77
2022/11/19 10:20:49;;;;;;;54.55;21.68;;;;;;;-1.55;93.47;97702.32;1713955;83;20946;-82
2022/11/19 10:23:20;;;;;;;51.65;20.10;;;;;;;-1.53;94.39;97707.45;1699556;83;21277;-82
2022/11/19 10:25:49;;;;;;;39.42;17.42;;;;;;;-1.50;94.19;97702.52;1709343;82;21038;-77
2022/11/19 10:28:27;;;;;;;29.95;14.70;;;;;;;-1.44;94.43;97706.19;1714037;82;21029;-77
2022/11/19 10:30:59;;;;;;;41.85;15.88;;;;;;;-1.39;93.84;97707.68;1698024;82;20993;-77
2022/11/19 10:33:33;;;;;;;36.90;17.82;;;;;;;-1.30;94.03;97705.60;1677927;85;21016;-82
2022/11/19 10:36:10;;;;;;;31.05;14.60;;;;;;;-1.24;93.96;97703.44;1684536;83;21009;-77
2022/11/19 10:38:42;;;;;;;20.15;10.38;;;;;;;-1.17;93.05;97702.89;1701074;83;21038;-82
2022/11/19 10:41:20;;;;;;;15.55;8.53;;;;;;;-1.10;90.95;97706.34;1701541;82;21948;-82
2022/11/19 10:43:56;;;;;;;17.12;9.18;;;;;;;-1.04;90.06;97696.67;1694647;83;21055;-77
2022/11/19 10:46:24;;;;;;;15.72;8.85;;;;;;;-0.97;88.16;97691.62;1679601;85;20972;-81
2022/11/19 10:48:57;;;;;;;30.92;14.20;;;;;;;-0.83;88.33;97685.71;1679389;85;21429;-81
2022/11/19 10:51:32;;;;;;;11.40;7.30;;;;;;;-0.77;88.62;97685.34;1679573;85;21016;-81
2022/11/19 10:54:01;;;;;;;12.93;6.75;;;;;;;-0.61;87.20;97688.81;1679365;85;21025;-77
2022/11/19 10:56:40;;;;;;;15.20;7.12;;;;;;;-0.56;87.36;97691.66;1679632;85;26512;-77
2022/11/19 10:59:17;;;;;;;25.80;11.78;;;;;;;-0.44;86.88;97681.92;1672939;85;21385;-77
2022/11/19 11:01:47;;;;;;;11.78;7.58;;;;;;;-0.35;84.60;97686.45;1684858;83;20977;-82
2022/11/19 11:04:23;;;;;;;12.88;7.53;;;;;;;-0.39;84.93;97684.76;1698926;83;20974;-82
2022/11/19 11:07:01;;;;;;;18.15;8.65;;;;;;;-0.36;82.80;97686.97;1700229;83;20997;-77
2022/11/19 11:09:38;;;;;;;12.40;5.20;;;;;;;-0.46;83.40;97686.66;1697936;83;21465;-82
2022/11/19 11:15:17;;;;;;;14.40;7.15;;;;;;;-0.52;82.24;97680.86;1685607;85;21052;-77
2022/11/19 11:17:45;;;;;;;19.95;9.70;;;;;;;-0.60;80.85;97679.31;1685379;83;21725;-77
2022/11/19 11:20:20;;;;;;;26.42;9.15;;;;;;;-0.62;83.31;97681.86;1685802;84;20981;-82
2022/11/19 11:22:49;;;;;;;22.10;9.83;;;;;;;-0.61;83.74;97686.16;1686232;83;21072;-81
2022/11/19 11:25:25;;;;;;;25.10;12.30;;;;;;;-0.63;84.26;97688.22;1707372;83;21009;-77
2022/11/19 11:28:14;;;;;;;23.70;8.43;;;;;;;-0.64;84.16;97686.59;1714192;82;20986;-77
2022/11/19 11:30:58;;;;;;;14.38;7.25;;;;;;;-0.62;84.52;97693.33;1714268;82;21129;-78
2022/11/19 11:33:31;;;;;;;16.02;7.42;;;;;;;-0.64;83.95;97683.94;1714008;82;20975;-82
2022/11/19 11:36:02;;;;;;;13.32;6.55;;;;;;;-0.71;84.25;97685.30;1714282;82;20986;-82
2022/11/19 11:38:29;;;;;;;16.45;7.87;;;;;;;-0.71;84.13;97689.30;1713994;82;20998;-82
2022/11/19 11:41:05;;;;;;;15.68;9.03;;;;;;;-0.74;83.83;97687.59;1698405;83;20962;-78
2022/11/19 11:43:33;;;;;;;19.80;10.03;;;;;;;-0.82;83.80;97686.52;1685373;83;20981;-78
2022/11/19 11:46:03;;;;;;;11.03;6.83;;;;;;;-0.87;83.98;97687.97;1685553;84;20988;-82
2022/11/19 11:48:36;;;;;;;14.47;7.47;;;;;;;-0.91;83.80;97688.62;1684901;83;21472;-78
2022/11/19 11:51:03;;;;;;;22.22;9.00;;;;;;;-0.92;84.32;97693.66;1685769;84;20962;-82
2022/11/19 11:53:32;;;;;;;26.23;14.53;;;;;;;-0.94;81.64;97694.36;1684172;83;20997;-82